sensor_id;sensor_type;location;lat;lon;timestamp;temperature;humidity
33903;DHT22;20194;50.950;5.346;2022-10-16T00:01:27;14.90;43.30
33903;DHT22;20194;50.950;5.346;2022-10-16T00:03:53;14.90;43.20
33903;DHT22;20194;50.950;5.346;2022-10-16T00:06:21;14.90;42.90
33903;DHT22;20194;50.950;5.346;2022-10-16T00:08:48;14.80;44.50
33903;DHT22;20194;50.950;5.346;2022-10-16T00:11:20;14.90;42.70
33903;DHT22;20194;50.950;5.346;2022-10-16T00:13:47;14.90;41.30
33903;DHT22;20194;50.950;5.346;2022-10-16T00:16:14;14.80;42.10
33903;DHT22;20194;50.950;5.346;2022-10-16T00:18:40;14.90;42.70
33903;DHT22;20194;50.950;5.346;2022-10-16T00:21:09;14.80;41.80
33903;DHT22;20194;50.950;5.346;2022-10-16T00:23:35;14.80;40.50
33903;DHT22;20194;50.950;5.346;2022-10-16T00:26:04;14.80;41.30
33903;DHT22;20194;50.950;5.346;2022-10-16T00:28:31;14.70;43.30
33903;DHT22;20194;50.950;5.346;2022-10-16T00:30:57;14.70;43.70
33903;DHT22;20194;50.950;5.346;2022-10-16T00:33:23;14.60;44.10
33903;DHT22;20194;50.950;5.346;2022-10-16T00:35:49;14.60;44.00
33903;DHT22;20194;50.950;5.346;2022-10-16T00:38:15;14.60;44.10
33903;DHT22;20194;50.950;5.346;2022-10-16T00:40:41;14.50;45.30
33903;DHT22;20194;50.950;5.346;2022-10-16T00:46:00;14.50;46.90
33903;DHT22;20194;50.950;5.346;2022-10-16T00:48:26;14.50;45.90
33903;DHT22;20194;50.950;5.346;2022-10-16T00:50:53;14.50;46.00
33903;DHT22;20194;50.950;5.346;2022-10-16T00:53:19;14.40;45.30
33903;DHT22;20194;50.950;5.346;2022-10-16T00:55:45;14.40;44.70
33903;DHT22;20194;50.950;5.346;2022-10-16T00:58:11;14.40;46.00
33903;DHT22;20194;50.950;5.346;2022-10-16T01:00:37;14.40;47.00
33903;DHT22;20194;50.950;5.346;2022-10-16T01:03:21;14.50;45.10
33903;DHT22;20194;50.950;5.346;2022-10-16T01:05:52;14.50;44.30
33903;DHT22;20194;50.950;5.346;2022-10-16T01:08:34;14.50;45.70
33903;DHT22;20194;50.950;5.346;2022-10-16T01:11:27;14.60;44.50
33903;DHT22;20194;50.950;5.346;2022-10-16T01:13:55;14.50;44.90
33903;DHT22;20194;50.950;5.346;2022-10-16T01:16:55;14.50;44.70
33903;DHT22;20194;50.950;5.346;2022-10-16T01:22:10;14.40;46.80
33903;DHT22;20194;50.950;5.346;2022-10-16T01:24:40;14.40;47.30
33903;DHT22;20194;50.950;5.346;2022-10-16T01:27:38;14.40;47.10
33903;DHT22;20194;50.950;5.346;2022-10-16T01:30:26;14.50;45.10
33903;DHT22;20194;50.950;5.346;2022-10-16T01:33:01;14.40;46.70
33903;DHT22;20194;50.950;5.346;2022-10-16T01:35:45;14.40;46.30
33903;DHT22;20194;50.950;5.346;2022-10-16T01:38:21;14.40;45.60
33903;DHT22;20194;50.950;5.346;2022-10-16T01:40:51;14.30;47.80
33903;DHT22;20194;50.950;5.346;2022-10-16T01:43:25;14.30;49.60
33903;DHT22;20194;50.950;5.346;2022-10-16T01:45:52;14.30;48.40
33903;DHT22;20194;50.950;5.346;2022-10-16T01:48:19;14.30;48.60
33903;DHT22;20194;50.950;5.346;2022-10-16T01:50:58;14.30;47.90
33903;DHT22;20194;50.950;5.346;2022-10-16T01:53:25;14.20;48.40
33903;DHT22;20194;50.950;5.346;2022-10-16T01:55:52;14.30;50.20
33903;DHT22;20194;50.950;5.346;2022-10-16T01:58:20;14.20;49.60
33903;DHT22;20194;50.950;5.346;2022-10-16T02:00:47;14.20;51.20
33903;DHT22;20194;50.950;5.346;2022-10-16T02:03:16;14.10;50.10
33903;DHT22;20194;50.950;5.346;2022-10-16T02:05:51;14.10;51.50
33903;DHT22;20194;50.950;5.346;2022-10-16T02:08:19;14.10;52.80
33903;DHT22;20194;50.950;5.346;2022-10-16T02:10:45;14.20;50.40
33903;DHT22;20194;50.950;5.346;2022-10-16T02:13:17;14.10;52.00
33903;DHT22;20194;50.950;5.346;2022-10-16T02:15:44;14.00;53.10
33903;DHT22;20194;50.950;5.346;2022-10-16T02:18:10;14.00;53.80
33903;DHT22;20194;50.950;5.346;2022-10-16T02:20:47;14.00;53.10
33903;DHT22;20194;50.950;5.346;2022-10-16T02:26:08;14.00;52.90
33903;DHT22;20194;50.950;5.346;2022-10-16T02:28:44;14.10;52.60
33903;DHT22;20194;50.950;5.346;2022-10-16T02:31:14;14.10;52.00
33903;DHT22;20194;50.950;5.346;2022-10-16T02:33:43;14.10;52.30
33903;DHT22;20194;50.950;5.346;2022-10-16T02:36:10;14.20;53.30
33903;DHT22;20194;50.950;5.346;2022-10-16T02:38:36;14.10;52.40
33903;DHT22;20194;50.950;5.346;2022-10-16T02:41:03;14.30;52.80
33903;DHT22;20194;50.950;5.346;2022-10-16T02:43:29;14.10;51.30
33903;DHT22;20194;50.950;5.346;2022-10-16T02:45:55;14.10;52.40
33903;DHT22;20194;50.950;5.346;2022-10-16T02:48:21;14.10;52.40
33903;DHT22;20194;50.950;5.346;2022-10-16T02:50:47;14.10;53.80
33903;DHT22;20194;50.950;5.346;2022-10-16T02:53:13;14.10;53.30
33903;DHT22;20194;50.950;5.346;2022-10-16T02:55:38;14.10;54.20
33903;DHT22;20194;50.950;5.346;2022-10-16T02:58:04;14.10;53.90
33903;DHT22;20194;50.950;5.346;2022-10-16T03:00:29;14.20;53.20
33903;DHT22;20194;50.950;5.346;2022-10-16T03:02:55;14.20;53.70
33903;DHT22;20194;50.950;5.346;2022-10-16T03:05:21;14.10;52.90
33903;DHT22;20194;50.950;5.346;2022-10-16T03:07:46;14.10;54.10
33903;DHT22;20194;50.950;5.346;2022-10-16T03:10:12;14.10;53.80
33903;DHT22;20194;50.950;5.346;2022-10-16T03:12:38;14.10;54.00
33903;DHT22;20194;50.950;5.346;2022-10-16T03:15:03;14.20;53.80
33903;DHT22;20194;50.950;5.346;2022-10-16T03:17:31;14.20;52.90
33903;DHT22;20194;50.950;5.346;2022-10-16T03:19:57;14.20;53.90
33903;DHT22;20194;50.950;5.346;2022-10-16T03:22:22;14.10;53.90
33903;DHT22;20194;50.950;5.346;2022-10-16T03:24:48;14.10;54.20
33903;DHT22;20194;50.950;5.346;2022-10-16T03:27:14;14.00;54.10
33903;DHT22;20194;50.950;5.346;2022-10-16T03:29:40;14.00;55.30
33903;DHT22;20194;50.950;5.346;2022-10-16T03:32:06;13.90;55.60
33903;DHT22;20194;50.950;5.346;2022-10-16T03:34:31;13.90;57.00
33903;DHT22;20194;50.950;5.346;2022-10-16T03:36:57;14.00;56.40
33903;DHT22;20194;50.950;5.346;2022-10-16T03:39:23;13.90;56.60
33903;DHT22;20194;50.950;5.346;2022-10-16T03:41:48;14.00;57.10
33903;DHT22;20194;50.950;5.346;2022-10-16T03:44:14;14.00;56.50
33903;DHT22;20194;50.950;5.346;2022-10-16T03:46:40;14.00;56.20
33903;DHT22;20194;50.950;5.346;2022-10-16T03:49:06;14.00;55.70
33903;DHT22;20194;50.950;5.346;2022-10-16T03:51:31;13.90;56.10
33903;DHT22;20194;50.950;5.346;2022-10-16T03:53:57;14.00;56.20
33903;DHT22;20194;50.950;5.346;2022-10-16T03:56:23;14.00;56.50
33903;DHT22;20194;50.950;5.346;2022-10-16T03:58:49;14.00;56.60
33903;DHT22;20194;50.950;5.346;2022-10-16T04:01:14;13.90;56.70
33903;DHT22;20194;50.950;5.346;2022-10-16T04:03:40;13.90;57.90
33903;DHT22;20194;50.950;5.346;2022-10-16T04:06:06;13.80;58.70
33903;DHT22;20194;50.950;5.346;2022-10-16T04:08:31;13.80;58.10
33903;DHT22;20194;50.950;5.346;2022-10-16T04:11:00;13.90;57.40
33903;DHT22;20194;50.950;5.346;2022-10-16T04:13:26;13.90;58.20
33903;DHT22;20194;50.950;5.346;2022-10-16T04:15:52;13.90;57.40
33903;DHT22;20194;50.950;5.346;2022-10-16T04:18:17;13.90;57.00
33903;DHT22;20194;50.950;5.346;2022-10-16T04:20:43;13.90;56.40
33903;DHT22;20194;50.950;5.346;2022-10-16T04:23:09;13.80;58.00
33903;DHT22;20194;50.950;5.346;2022-10-16T04:25:34;13.90;58.00
33903;DHT22;20194;50.950;5.346;2022-10-16T04:28:00;13.90;58.30
33903;DHT22;20194;50.950;5.346;2022-10-16T04:30:26;13.90;58.40
33903;DHT22;20194;50.950;5.346;2022-10-16T04:32:52;13.90;58.10
33903;DHT22;20194;50.950;5.346;2022-10-16T04:35:19;13.90;59.00
33903;DHT22;20194;50.950;5.346;2022-10-16T04:37:46;13.90;59.40
33903;DHT22;20194;50.950;5.346;2022-10-16T04:40:12;13.80;58.90
33903;DHT22;20194;50.950;5.346;2022-10-16T04:42:38;13.80;59.00
33903;DHT22;20194;50.950;5.346;2022-10-16T04:45:05;13.80;59.80
33903;DHT22;20194;50.950;5.346;2022-10-16T04:47:31;13.80;60.40
33903;DHT22;20194;50.950;5.346;2022-10-16T04:49:57;13.80;60.40
33903;DHT22;20194;50.950;5.346;2022-10-16T04:52:24;13.80;59.90
33903;DHT22;20194;50.950;5.346;2022-10-16T04:54:50;13.80;60.30
33903;DHT22;20194;50.950;5.346;2022-10-16T04:57:16;13.80;60.30
33903;DHT22;20194;50.950;5.346;2022-10-16T04:59:42;13.80;60.50
33903;DHT22;20194;50.950;5.346;2022-10-16T05:02:08;13.80;60.80
33903;DHT22;20194;50.950;5.346;2022-10-16T05:04:33;13.80;60.50
33903;DHT22;20194;50.950;5.346;2022-10-16T05:06:59;13.80;60.90
33903;DHT22;20194;50.950;5.346;2022-10-16T05:09:25;13.90;59.70
33903;DHT22;20194;50.950;5.346;2022-10-16T05:11:51;13.90;59.80
33903;DHT22;20194;50.950;5.346;2022-10-16T05:14:16;13.90;59.70
33903;DHT22;20194;50.950;5.346;2022-10-16T05:16:43;13.90;59.00
33903;DHT22;20194;50.950;5.346;2022-10-16T05:19:08;13.80;60.10
33903;DHT22;20194;50.950;5.346;2022-10-16T05:21:34;13.80;60.00
33903;DHT22;20194;50.950;5.346;2022-10-16T05:23:59;13.80;60.70
33903;DHT22;20194;50.950;5.346;2022-10-16T05:26:25;13.80;60.10
33903;DHT22;20194;50.950;5.346;2022-10-16T05:28:51;13.80;60.40
33903;DHT22;20194;50.950;5.346;2022-10-16T05:31:17;13.80;59.80
33903;DHT22;20194;50.950;5.346;2022-10-16T05:33:42;13.80;60.00
33903;DHT22;20194;50.950;5.346;2022-10-16T05:36:10;13.80;60.00
33903;DHT22;20194;50.950;5.346;2022-10-16T05:38:36;13.80;59.70
33903;DHT22;20194;50.950;5.346;2022-10-16T05:41:02;13.70;60.40
33903;DHT22;20194;50.950;5.346;2022-10-16T05:43:29;13.70;61.90
33903;DHT22;20194;50.950;5.346;2022-10-16T05:46:01;13.70;61.50
33903;DHT22;20194;50.950;5.346;2022-10-16T05:48:28;13.70;62.10
33903;DHT22;20194;50.950;5.346;2022-10-16T05:51:05;13.80;61.00
33903;DHT22;20194;50.950;5.346;2022-10-16T05:53:33;13.70;60.70
33903;DHT22;20194;50.950;5.346;2022-10-16T05:56:00;13.70;61.00
33903;DHT22;20194;50.950;5.346;2022-10-16T05:58:29;13.70;62.10
33903;DHT22;20194;50.950;5.346;2022-10-16T06:00:57;13.70;60.80
33903;DHT22;20194;50.950;5.346;2022-10-16T06:03:23;13.70;61.30
33903;DHT22;20194;50.950;5.346;2022-10-16T06:05:49;13.70;60.60
33903;DHT22;20194;50.950;5.346;2022-10-16T06:08:14;13.70;60.30
33903;DHT22;20194;50.950;5.346;2022-10-16T06:10:41;13.70;60.40
33903;DHT22;20194;50.950;5.346;2022-10-16T06:13:06;13.70;60.30
33903;DHT22;20194;50.950;5.346;2022-10-16T06:15:32;13.70;60.40
33903;DHT22;20194;50.950;5.346;2022-10-16T06:17:57;13.70;58.60
33903;DHT22;20194;50.950;5.346;2022-10-16T06:20:23;13.70;59.80
33903;DHT22;20194;50.950;5.346;2022-10-16T06:22:49;13.80;59.20
33903;DHT22;20194;50.950;5.346;2022-10-16T06:25:14;13.80;59.40
33903;DHT22;20194;50.950;5.346;2022-10-16T06:27:40;13.80;58.90
33903;DHT22;20194;50.950;5.346;2022-10-16T06:30:07;13.80;59.00
33903;DHT22;20194;50.950;5.346;2022-10-16T06:32:32;13.90;58.50
33903;DHT22;20194;50.950;5.346;2022-10-16T06:34:58;13.80;58.10
33903;DHT22;20194;50.950;5.346;2022-10-16T06:37:24;13.80;57.10
33903;DHT22;20194;50.950;5.346;2022-10-16T06:39:50;13.80;56.80
33903;DHT22;20194;50.950;5.346;2022-10-16T06:42:18;13.80;58.00
33903;DHT22;20194;50.950;5.346;2022-10-16T06:44:44;13.70;59.00
33903;DHT22;20194;50.950;5.346;2022-10-16T06:47:09;13.80;59.00
33903;DHT22;20194;50.950;5.346;2022-10-16T06:49:36;13.90;57.00
33903;DHT22;20194;50.950;5.346;2022-10-16T06:52:01;13.80;56.50
33903;DHT22;20194;50.950;5.346;2022-10-16T06:54:27;13.80;56.90
33903;DHT22;20194;50.950;5.346;2022-10-16T06:56:54;13.80;57.80
33903;DHT22;20194;50.950;5.346;2022-10-16T06:59:20;13.80;58.10
33903;DHT22;20194;50.950;5.346;2022-10-16T07:01:46;13.80;58.00
33903;DHT22;20194;50.950;5.346;2022-10-16T07:04:12;13.80;58.50
33903;DHT22;20194;50.950;5.346;2022-10-16T07:06:38;13.80;58.60
33903;DHT22;20194;50.950;5.346;2022-10-16T07:09:07;13.80;59.20
33903;DHT22;20194;50.950;5.346;2022-10-16T07:11:34;13.70;59.90
33903;DHT22;20194;50.950;5.346;2022-10-16T07:14:01;13.80;59.40
33903;DHT22;20194;50.950;5.346;2022-10-16T07:16:29;13.80;59.10
33903;DHT22;20194;50.950;5.346;2022-10-16T07:18:56;13.80;59.30
33903;DHT22;20194;50.950;5.346;2022-10-16T07:21:30;13.80;60.00
33903;DHT22;20194;50.950;5.346;2022-10-16T07:23:58;13.90;59.50
33903;DHT22;20194;50.950;5.346;2022-10-16T07:26:26;13.90;60.10
33903;DHT22;20194;50.950;5.346;2022-10-16T07:28:52;13.90;59.60
33903;DHT22;20194;50.950;5.346;2022-10-16T07:31:19;14.00;59.60
33903;DHT22;20194;50.950;5.346;2022-10-16T07:33:46;14.00;59.50
33903;DHT22;20194;50.950;5.346;2022-10-16T07:36:14;14.10;58.80
33903;DHT22;20194;50.950;5.346;2022-10-16T07:38:40;14.30;58.10
33903;DHT22;20194;50.950;5.346;2022-10-16T07:41:10;14.40;57.10
33903;DHT22;20194;50.950;5.346;2022-10-16T07:43:36;14.50;55.50
33903;DHT22;20194;50.950;5.346;2022-10-16T07:46:01;14.60;55.00
33903;DHT22;20194;50.950;5.346;2022-10-16T07:48:29;14.60;53.40
33903;DHT22;20194;50.950;5.346;2022-10-16T07:51:06;14.70;53.80
33903;DHT22;20194;50.950;5.346;2022-10-16T07:53:32;14.70;53.30
33903;DHT22;20194;50.950;5.346;2022-10-16T07:55:59;14.70;53.70
33903;DHT22;20194;50.950;5.346;2022-10-16T07:58:26;14.80;53.00
33903;DHT22;20194;50.950;5.346;2022-10-16T08:00:52;14.80;52.70
33903;DHT22;20194;50.950;5.346;2022-10-16T08:03:17;14.80;51.30
33903;DHT22;20194;50.950;5.346;2022-10-16T08:05:43;14.90;52.40
33903;DHT22;20194;50.950;5.346;2022-10-16T08:08:13;14.90;52.00
33903;DHT22;20194;50.950;5.346;2022-10-16T08:10:39;15.00;52.20
33903;DHT22;20194;50.950;5.346;2022-10-16T08:13:05;15.20;48.40
33903;DHT22;20194;50.950;5.346;2022-10-16T08:15:30;15.40;48.40
33903;DHT22;20194;50.950;5.346;2022-10-16T08:18:01;15.40;45.60
33903;DHT22;20194;50.950;5.346;2022-10-16T08:20:29;15.50;45.70
33903;DHT22;20194;50.950;5.346;2022-10-16T08:22:55;15.60;42.10
33903;DHT22;20194;50.950;5.346;2022-10-16T08:25:23;15.80;40.10
33903;DHT22;20194;50.950;5.346;2022-10-16T08:27:49;15.90;35.60
33903;DHT22;20194;50.950;5.346;2022-10-16T08:30:16;16.10;35.20
33903;DHT22;20194;50.950;5.346;2022-10-16T08:32:41;16.30;29.80
33903;DHT22;20194;50.950;5.346;2022-10-16T08:35:08;16.40;30.90
33903;DHT22;20194;50.950;5.346;2022-10-16T08:37:35;16.60;27.70
33903;DHT22;20194;50.950;5.346;2022-10-16T08:40:02;16.70;25.10
33903;DHT22;20194;50.950;5.346;2022-10-16T08:47:33;16.90;20.00
33903;DHT22;20194;50.950;5.346;2022-10-16T08:50:09;17.10;18.00
33903;DHT22;20194;50.950;5.346;2022-10-16T08:52:40;17.20;17.40
33903;DHT22;20194;50.950;5.346;2022-10-16T08:55:08;17.30;17.70
33903;DHT22;20194;50.950;5.346;2022-10-16T08:57:42;17.50;13.30
33903;DHT22;20194;50.950;5.346;2022-10-16T09:00:14;17.50;11.90
33903;DHT22;20194;50.950;5.346;2022-10-16T09:17:00;18.50;1.00
33903;DHT22;20194;50.950;5.346;2022-10-16T09:21:55;18.80;1.00
33903;DHT22;20194;50.950;5.346;2022-10-16T09:24:25;18.70;1.00
33903;DHT22;20194;50.950;5.346;2022-10-16T09:26:51;18.60;1.00
33903;DHT22;20194;50.950;5.346;2022-10-16T09:29:20;18.50;1.00
33903;DHT22;20194;50.950;5.346;2022-10-16T09:31:47;18.70;1.00
33903;DHT22;20194;50.950;5.346;2022-10-16T09:34:32;18.90;1.00
33903;DHT22;20194;50.950;5.346;2022-10-16T09:37:01;19.30;1.00
33903;DHT22;20194;50.950;5.346;2022-10-16T09:39:28;19.40;1.00
33903;DHT22;20194;50.950;5.346;2022-10-16T09:41:55;19.50;1.00
33903;DHT22;20194;50.950;5.346;2022-10-16T09:44:27;19.50;1.00
33903;DHT22;20194;50.950;5.346;2022-10-16T09:47:03;19.30;1.00
33903;DHT22;20194;50.950;5.346;2022-10-16T09:49:29;19.20;1.00
33903;DHT22;20194;50.950;5.346;2022-10-16T09:52:24;18.90;1.00
33903;DHT22;20194;50.950;5.346;2022-10-16T09:54:55;18.80;1.00
33903;DHT22;20194;50.950;5.346;2022-10-16T09:57:22;19.00;1.00
33903;DHT22;20194;50.950;5.346;2022-10-16T09:59:58;19.20;1.00
33903;DHT22;20194;50.950;5.346;2022-10-16T10:02:44;19.30;1.00
33903;DHT22;20194;50.950;5.346;2022-10-16T10:05:24;19.50;1.00
33903;DHT22;20194;50.950;5.346;2022-10-16T10:07:58;19.70;1.00
33903;DHT22;20194;50.950;5.346;2022-10-16T10:10:30;19.90;1.00
33903;DHT22;20194;50.950;5.346;2022-10-16T10:12:57;19.90;1.00
33903;DHT22;20194;50.950;5.346;2022-10-16T10:15:23;19.70;1.00
33903;DHT22;20194;50.950;5.346;2022-10-16T10:17:55;19.70;1.00
33903;DHT22;20194;50.950;5.346;2022-10-16T10:20:26;19.90;1.00
33903;DHT22;20194;50.950;5.346;2022-10-16T10:22:52;19.90;1.00
33903;DHT22;20194;50.950;5.346;2022-10-16T10:25:42;20.00;1.00
33903;DHT22;20194;50.950;5.346;2022-10-16T10:33:23;19.60;1.00
33903;DHT22;20194;50.950;5.346;2022-10-16T10:35:58;19.30;1.00
33903;DHT22;20194;50.950;5.346;2022-10-16T10:38:34;19.30;1.00
33903;DHT22;20194;50.950;5.346;2022-10-16T10:51:56;19.60;1.00
33903;DHT22;20194;50.950;5.346;2022-10-16T10:54:35;19.30;1.00
33903;DHT22;20194;50.950;5.346;2022-10-16T10:57:34;19.30;1.00
33903;DHT22;20194;50.950;5.346;2022-10-16T11:06:18;19.80;1.00
33903;DHT22;20194;50.950;5.346;2022-10-16T11:08:48;20.00;1.00
33903;DHT22;20194;50.950;5.346;2022-10-16T11:11:24;20.10;1.00
33903;DHT22;20194;50.950;5.346;2022-10-16T11:14:10;20.00;1.00
33903;DHT22;20194;50.950;5.346;2022-10-16T11:16:42;20.30;1.00
33903;DHT22;20194;50.950;5.346;2022-10-16T11:19:20;20.20;1.00
33903;DHT22;20194;50.950;5.346;2022-10-16T11:21:55;20.10;1.00
33903;DHT22;20194;50.950;5.346;2022-10-16T11:27:37;20.00;1.00
33903;DHT22;20194;50.950;5.346;2022-10-16T11:30:30;20.10;1.00
33903;DHT22;20194;50.950;5.346;2022-10-16T11:36:21;19.70;1.00
33903;DHT22;20194;50.950;5.346;2022-10-16T11:38:57;19.70;1.00
33903;DHT22;20194;50.950;5.346;2022-10-16T11:41:29;19.90;1.00
33903;DHT22;20194;50.950;5.346;2022-10-16T11:46:24;19.70;1.00
33903;DHT22;20194;50.950;5.346;2022-10-16T11:51:48;19.50;1.00
33903;DHT22;20194;50.950;5.346;2022-10-16T11:56:49;19.60;1.00
33903;DHT22;20194;50.950;5.346;2022-10-16T12:01:54;19.70;1.00
33903;DHT22;20194;50.950;5.346;2022-10-16T12:04:34;19.30;1.00
33903;DHT22;20194;50.950;5.346;2022-10-16T12:07:08;19.40;1.00
33903;DHT22;20194;50.950;5.346;2022-10-16T12:09:40;19.30;1.00
33903;DHT22;20194;50.950;5.346;2022-10-16T12:12:26;19.50;1.00
33903;DHT22;20194;50.950;5.346;2022-10-16T12:15:24;19.50;1.00
33903;DHT22;20194;50.950;5.346;2022-10-16T12:17:49;19.60;1.00
33903;DHT22;20194;50.950;5.346;2022-10-16T12:25:28;19.30;1.00
33903;DHT22;20194;50.950;5.346;2022-10-16T12:27:59;19.40;1.00
33903;DHT22;20194;50.950;5.346;2022-10-16T12:30:27;19.50;1.00
33903;DHT22;20194;50.950;5.346;2022-10-16T12:34:00;19.50;1.00
33903;DHT22;20194;50.950;5.346;2022-10-16T12:36:14;19.60;1.00
33903;DHT22;20194;50.950;5.346;2022-10-16T12:38:51;19.80;1.00
33903;DHT22;20194;50.950;5.346;2022-10-16T12:41:32;20.00;1.00
33903;DHT22;20194;50.950;5.346;2022-10-16T12:43:59;20.10;1.00
33903;DHT22;20194;50.950;5.346;2022-10-16T12:51:40;20.30;1.00
33903;DHT22;20194;50.950;5.346;2022-10-16T12:54:13;20.20;1.00
33903;DHT22;20194;50.950;5.346;2022-10-16T12:59:29;19.90;1.00
33903;DHT22;20194;50.950;5.346;2022-10-16T13:02:13;20.00;1.00
33903;DHT22;20194;50.950;5.346;2022-10-16T13:22:00;19.80;1.00
33903;DHT22;20194;50.950;5.346;2022-10-16T13:24:42;20.00;1.00
33903;DHT22;20194;50.950;5.346;2022-10-16T13:30:17;19.80;1.00
33903;DHT22;20194;50.950;5.346;2022-10-16T13:32:48;19.70;1.00
33903;DHT22;20194;50.950;5.346;2022-10-16T13:35:26;19.60;1.00
33903;DHT22;20194;50.950;5.346;2022-10-16T13:40:52;19.70;1.00
33903;DHT22;20194;50.950;5.346;2022-10-16T13:43:20;19.60;1.00
33903;DHT22;20194;50.950;5.346;2022-10-16T13:45:55;19.50;1.00
33903;DHT22;20194;50.950;5.346;2022-10-16T13:48:21;19.50;1.00
33903;DHT22;20194;50.950;5.346;2022-10-16T13:51:01;19.50;1.00
33903;DHT22;20194;50.950;5.346;2022-10-16T13:53:30;19.60;1.00
33903;DHT22;20194;50.950;5.346;2022-10-16T13:55:56;19.60;1.00
33903;DHT22;20194;50.950;5.346;2022-10-16T13:58:22;19.50;1.00
33903;DHT22;20194;50.950;5.346;2022-10-16T14:01:00;19.70;1.00
33903;DHT22;20194;50.950;5.346;2022-10-16T14:03:28;20.00;1.00
33903;DHT22;20194;50.950;5.346;2022-10-16T14:05:57;20.00;1.00
33903;DHT22;20194;50.950;5.346;2022-10-16T14:08:25;20.20;1.00
33903;DHT22;20194;50.950;5.346;2022-10-16T14:10:55;20.10;1.00
33903;DHT22;20194;50.950;5.346;2022-10-16T14:13:37;20.30;1.00
33903;DHT22;20194;50.950;5.346;2022-10-16T14:16:16;20.10;1.00
33903;DHT22;20194;50.950;5.346;2022-10-16T14:18:46;20.00;1.00
33903;DHT22;20194;50.950;5.346;2022-10-16T14:21:16;20.20;1.00
33903;DHT22;20194;50.950;5.346;2022-10-16T14:23:42;20.30;1.00
33903;DHT22;20194;50.950;5.346;2022-10-16T14:28:38;20.40;1.00
33903;DHT22;20194;50.950;5.346;2022-10-16T14:31:33;20.50;1.00
33903;DHT22;20194;50.950;5.346;2022-10-16T14:33:59;20.60;1.00
33903;DHT22;20194;50.950;5.346;2022-10-16T14:36:27;20.60;1.00
33903;DHT22;20194;50.950;5.346;2022-10-16T14:39:05;20.60;1.00
33903;DHT22;20194;50.950;5.346;2022-10-16T14:41:41;20.40;1.00
33903;DHT22;20194;50.950;5.346;2022-10-16T14:44:11;20.40;1.00
33903;DHT22;20194;50.950;5.346;2022-10-16T14:46:39;20.40;1.00
33903;DHT22;20194;50.950;5.346;2022-10-16T14:51:39;20.10;1.00
33903;DHT22;20194;50.950;5.346;2022-10-16T14:54:08;20.10;1.00
33903;DHT22;20194;50.950;5.346;2022-10-16T14:56:43;20.20;1.00
33903;DHT22;20194;50.950;5.346;2022-10-16T14:59:16;20.20;1.00
33903;DHT22;20194;50.950;5.346;2022-10-16T15:01:43;20.30;1.00
33903;DHT22;20194;50.950;5.346;2022-10-16T15:04:11;20.30;1.00
33903;DHT22;20194;50.950;5.346;2022-10-16T15:06:37;20.40;1.00
33903;DHT22;20194;50.950;5.346;2022-10-16T15:09:03;20.30;1.00
33903;DHT22;20194;50.950;5.346;2022-10-16T15:11:31;20.30;1.00
33903;DHT22;20194;50.950;5.346;2022-10-16T15:13:57;20.40;1.00
33903;DHT22;20194;50.950;5.346;2022-10-16T15:16:24;20.40;1.00
33903;DHT22;20194;50.950;5.346;2022-10-16T15:18:50;20.30;1.00
33903;DHT22;20194;50.950;5.346;2022-10-16T15:21:30;20.30;1.00
33903;DHT22;20194;50.950;5.346;2022-10-16T15:23:57;20.30;1.00
33903;DHT22;20194;50.950;5.346;2022-10-16T15:26:24;20.30;1.00
33903;DHT22;20194;50.950;5.346;2022-10-16T15:28:51;20.30;1.00
33903;DHT22;20194;50.950;5.346;2022-10-16T15:31:16;20.30;1.00
33903;DHT22;20194;50.950;5.346;2022-10-16T15:33:42;20.20;1.00
33903;DHT22;20194;50.950;5.346;2022-10-16T15:36:08;20.20;1.00
33903;DHT22;20194;50.950;5.346;2022-10-16T15:38:33;19.90;1.00
33903;DHT22;20194;50.950;5.346;2022-10-16T15:40:59;19.90;1.00
33903;DHT22;20194;50.950;5.346;2022-10-16T15:43:25;20.00;1.00
33903;DHT22;20194;50.950;5.346;2022-10-16T15:46:05;20.00;1.00
33903;DHT22;20194;50.950;5.346;2022-10-16T15:48:32;20.00;1.00
33903;DHT22;20194;50.950;5.346;2022-10-16T15:50:59;20.00;1.00
33903;DHT22;20194;50.950;5.346;2022-10-16T15:53:24;20.00;1.00
33903;DHT22;20194;50.950;5.346;2022-10-16T15:55:50;20.10;1.00
33903;DHT22;20194;50.950;5.346;2022-10-16T15:58:16;20.10;1.00
33903;DHT22;20194;50.950;5.346;2022-10-16T16:00:42;20.20;1.00
33903;DHT22;20194;50.950;5.346;2022-10-16T16:03:07;20.10;1.00
33903;DHT22;20194;50.950;5.346;2022-10-16T16:05:33;20.10;1.00
33903;DHT22;20194;50.950;5.346;2022-10-16T16:08:02;20.00;1.00
33903;DHT22;20194;50.950;5.346;2022-10-16T16:10:29;19.90;1.00
33903;DHT22;20194;50.950;5.346;2022-10-16T16:12:54;19.90;1.00
33903;DHT22;20194;50.950;5.346;2022-10-16T16:15:21;19.90;1.00
33903;DHT22;20194;50.950;5.346;2022-10-16T16:17:47;19.90;1.00
33903;DHT22;20194;50.950;5.346;2022-10-16T16:20:13;19.90;1.00
33903;DHT22;20194;50.950;5.346;2022-10-16T16:22:39;20.00;1.00
33903;DHT22;20194;50.950;5.346;2022-10-16T16:25:05;19.80;1.00
33903;DHT22;20194;50.950;5.346;2022-10-16T16:27:31;19.80;1.00
33903;DHT22;20194;50.950;5.346;2022-10-16T16:29:59;19.80;1.00
33903;DHT22;20194;50.950;5.346;2022-10-16T16:32:25;19.70;1.00
33903;DHT22;20194;50.950;5.346;2022-10-16T16:34:50;19.70;1.00
33903;DHT22;20194;50.950;5.346;2022-10-16T16:37:16;19.60;1.00
33903;DHT22;20194;50.950;5.346;2022-10-16T16:39:42;19.60;1.00
33903;DHT22;20194;50.950;5.346;2022-10-16T16:42:08;19.70;1.00
33903;DHT22;20194;50.950;5.346;2022-10-16T16:44:35;19.60;1.00
33903;DHT22;20194;50.950;5.346;2022-10-16T16:47:02;19.50;1.00
33903;DHT22;20194;50.950;5.346;2022-10-16T16:49:28;19.40;1.00
33903;DHT22;20194;50.950;5.346;2022-10-16T16:51:54;19.30;1.00
33903;DHT22;20194;50.950;5.346;2022-10-16T16:54:20;19.30;1.00
33903;DHT22;20194;50.950;5.346;2022-10-16T16:56:45;19.30;1.00
33903;DHT22;20194;50.950;5.346;2022-10-16T16:59:17;19.40;1.00
33903;DHT22;20194;50.950;5.346;2022-10-16T17:01:45;19.40;1.00
33903;DHT22;20194;50.950;5.346;2022-10-16T17:04:12;19.30;1.00
33903;DHT22;20194;50.950;5.346;2022-10-16T17:06:38;19.30;1.00
33903;DHT22;20194;50.950;5.346;2022-10-16T17:09:06;19.30;1.00
33903;DHT22;20194;50.950;5.346;2022-10-16T17:11:32;19.30;1.00
33903;DHT22;20194;50.950;5.346;2022-10-16T17:13:59;19.20;1.00
33903;DHT22;20194;50.950;5.346;2022-10-16T17:16:29;19.10;1.00
33903;DHT22;20194;50.950;5.346;2022-10-16T17:18:59;19.00;1.00
33903;DHT22;20194;50.950;5.346;2022-10-16T17:21:25;18.90;1.00
33903;DHT22;20194;50.950;5.346;2022-10-16T17:23:52;18.80;1.00
33903;DHT22;20194;50.950;5.346;2022-10-16T17:26:18;18.70;1.00
33903;DHT22;20194;50.950;5.346;2022-10-16T17:28:44;18.60;1.00
33903;DHT22;20194;50.950;5.346;2022-10-16T17:31:17;18.60;1.00
33903;DHT22;20194;50.950;5.346;2022-10-16T17:33:43;18.60;1.00
33903;DHT22;20194;50.950;5.346;2022-10-16T17:36:09;18.60;1.00
33903;DHT22;20194;50.950;5.346;2022-10-16T17:38:36;18.40;1.00
33903;DHT22;20194;50.950;5.346;2022-10-16T17:41:19;18.60;1.00